Time;durP1;ratioP1;P1;durP2;ratioP2;P2;SDS_P1;SDS_P2;PMS_P1;PMS_P2;Temp;Humidity;BMP_temperature;BMP_pressure;BME280_temperature;BME280_humidity;BME280_pressure;Samples;Min_cycle;Max_cycle;Signal;HPM_P1;HPM_P2
2022/07/08 00:01:08;;;;;;;10.40;1.90;;;14.70;99.90;;;;;;5062270;28;20101;-68
2022/07/08 00:03:34;;;;;;;13.77;2.45;;;14.70;99.90;;;;;;5078281;28;20060;-68
2022/07/08 00:06:00;;;;;;;8.55;1.95;;;14.60;99.90;;;;;;5065864;28;20045;-67
2022/07/08 00:08:27;;;;;;;11.23;2.05;;;14.70;99.90;;;;;;5059497;28;20040;-67
2022/07/08 00:10:53;;;;;;;15.50;2.42;;;14.60;99.90;;;;;;5063382;28;20135;-68
2022/07/08 00:13:18;;;;;;;12.90;2.53;;;14.60;99.90;;;;;;5061324;28;20169;-67
2022/07/08 00:15:44;;;;;;;8.88;2.03;;;14.60;99.90;;;;;;5064707;28;20119;-67
2022/07/08 00:18:10;;;;;;;13.23;1.95;;;14.50;99.90;;;;;;5058445;28;20028;-68
2022/07/08 00:20:35;;;;;;;8.68;2.05;;;14.50;99.90;;;;;;5060708;28;20094;-67
2022/07/08 00:23:01;;;;;;;8.80;2.03;;;14.50;99.90;;;;;;5063579;28;20047;-67
2022/07/08 00:25:27;;;;;;;17.42;2.50;;;14.60;99.90;;;;;;5065346;28;20065;-67
2022/07/08 00:27:52;;;;;;;13.05;2.45;;;14.60;99.90;;;;;;5061144;28;20202;-67
2022/07/08 00:30:18;;;;;;;14.43;2.15;;;14.60;99.90;;;;;;5065187;28;20040;-67
2022/07/08 00:32:44;;;;;;;13.68;2.28;;;14.60;99.90;;;;;;5056854;28;22514;-68
2022/07/08 00:35:10;;;;;;;9.80;2.00;;;14.60;99.90;;;;;;5059932;28;20301;-67
2022/07/08 00:37:39;;;;;;;15.55;2.83;;;14.50;99.90;;;;;;5060266;28;20056;-67
2022/07/08 00:40:08;;;;;;;17.45;2.28;;;14.50;99.90;;;;;;5060571;28;20510;-67
2022/07/08 00:42:34;;;;;;;13.55;2.47;;;14.50;99.90;;;;;;5066526;28;20449;-68
2022/07/08 00:45:02;;;;;;;11.43;2.20;;;14.50;99.90;;;;;;5058431;28;20055;-68
2022/07/08 00:47:28;;;;;;;12.15;3.13;;;14.50;99.90;;;;;;5047437;28;20043;-68
2022/07/08 00:49:54;;;;;;;17.88;3.25;;;14.50;99.90;;;;;;5065587;28;20406;-68
2022/07/08 00:52:20;;;;;;;13.68;2.63;;;14.50;99.90;;;;;;5062878;28;20689;-67
2022/07/08 00:54:47;;;;;;;13.40;2.30;;;14.50;99.90;;;;;;5064418;28;20039;-66
2022/07/08 00:57:14;;;;;;;8.97;2.03;;;14.50;99.90;;;;;;5063052;28;20459;-67
2022/07/08 00:59:41;;;;;;;14.50;2.90;;;14.50;99.90;;;;;;5079668;28;20103;-68
2022/07/08 01:02:07;;;;;;;14.90;2.10;;;14.50;99.90;;;;;;5054963;28;20421;-68
2022/07/08 01:04:34;;;;;;;12.70;2.40;;;14.60;99.90;;;;;;5066703;28;20294;-68
2022/07/08 01:07:03;;;;;;;12.60;2.63;;;14.50;99.90;;;;;;5068944;28;20042;-66
2022/07/08 01:09:29;;;;;;;12.55;2.22;;;14.40;99.90;;;;;;5062914;28;20076;-68
2022/07/08 01:11:55;;;;;;;13.27;2.28;;;14.40;99.90;;;;;;5065876;28;20072;-66
2022/07/08 01:14:20;;;;;;;16.55;2.90;;;14.30;99.90;;;;;;5059785;28;20060;-67
2022/07/08 01:16:46;;;;;;;11.98;2.25;;;14.30;99.90;;;;;;5057027;28;20554;-68
2022/07/08 01:19:12;;;;;;;10.38;2.00;;;14.30;99.90;;;;;;5051866;28;20517;-68
2022/07/08 01:21:38;;;;;;;15.48;2.40;;;14.30;99.90;;;;;;5057685;28;20055;-67
2022/07/08 01:24:03;;;;;;;15.52;2.30;;;14.30;99.90;;;;;;5064509;28;20048;-67
2022/07/08 01:26:29;;;;;;;11.90;1.85;;;14.30;99.90;;;;;;5068595;28;20175;-67
2022/07/08 01:28:55;;;;;;;11.48;2.05;;;14.30;99.90;;;;;;5068152;28;20558;-68
2022/07/08 01:31:24;;;;;;;11.18;2.20;;;14.30;99.90;;;;;;5060566;28;20049;-68
2022/07/08 01:33:50;;;;;;;12.88;2.17;;;14.30;99.90;;;;;;5057462;28;20478;-68
2022/07/08 01:36:16;;;;;;;32.83;3.30;;;14.30;99.90;;;;;;5052632;28;20056;-68
2022/07/08 01:38:42;;;;;;;14.52;2.65;;;14.30;99.90;;;;;;5065784;28;20037;-68
2022/07/08 01:41:07;;;;;;;10.50;2.50;;;14.30;99.90;;;;;;5065719;28;20064;-67
2022/07/08 01:43:33;;;;;;;15.93;2.30;;;14.30;99.90;;;;;;5059852;28;20052;-67
2022/07/08 01:46:00;;;;;;;11.20;2.45;;;14.20;99.90;;;;;;5058567;28;20045;-67
2022/07/08 01:48:25;;;;;;;9.68;2.08;;;14.20;99.90;;;;;;5069402;28;20461;-68
2022/07/08 01:50:51;;;;;;;10.63;2.40;;;14.20;99.90;;;;;;5066188;28;20041;-68
2022/07/08 01:53:17;;;;;;;17.48;2.85;;;14.10;99.90;;;;;;5050426;28;20040;-67
2022/07/08 01:55:46;;;;;;;17.90;2.42;;;14.10;99.90;;;;;;5049383;28;20044;-67
2022/07/08 01:58:12;;;;;;;8.25;2.40;;;14.10;99.90;;;;;;5062581;28;20122;-68
2022/07/08 02:00:37;;;;;;;10.15;2.35;;;14.00;99.90;;;;;;5070422;28;20041;-67
2022/07/08 02:03:03;;;;;;;9.57;2.10;;;14.00;99.90;;;;;;5050764;28;20048;-67
2022/07/08 02:05:32;;;;;;;14.25;2.33;;;13.90;99.90;;;;;;5063781;28;20039;-67
2022/07/08 02:07:58;;;;;;;11.00;2.15;;;13.90;99.90;;;;;;5050910;28;20056;-69
2022/07/08 02:10:24;;;;;;;8.10;2.20;;;13.80;99.90;;;;;;5062700;28;20049;-67
2022/07/08 02:12:49;;;;;;;11.68;2.13;;;13.80;99.90;;;;;;5071698;28;20044;-66
2022/07/08 02:15:15;;;;;;;10.45;2.30;;;13.80;99.90;;;;;;5068626;28;20032;-67
2022/07/08 02:17:42;;;;;;;18.33;3.10;;;13.70;99.90;;;;;;5060567;28;20132;-68
2022/07/08 02:20:11;;;;;;;8.77;2.17;;;13.70;99.90;;;;;;5064735;28;20036;-68
2022/07/08 02:22:38;;;;;;;13.23;2.50;;;13.60;99.90;;;;;;5062490;28;20259;-68
2022/07/08 02:25:08;;;;;;;15.05;2.75;;;13.70;99.90;;;;;;5066732;28;20102;-68
2022/07/08 02:27:33;;;;;;;10.32;1.98;;;13.60;99.90;;;;;;5065299;28;20414;-67
2022/07/08 02:29:59;;;;;;;12.18;2.28;;;13.70;99.90;;;;;;5058961;28;20041;-69
2022/07/08 02:32:24;;;;;;;10.80;2.42;;;13.70;99.90;;;;;;5062691;28;20045;-69
2022/07/08 02:34:54;;;;;;;11.38;2.60;;;13.60;99.90;;;;;;5060951;28;20048;-67
2022/07/08 02:37:20;;;;;;;13.48;2.25;;;13.60;99.90;;;;;;5059074;28;20441;-69
2022/07/08 02:39:46;;;;;;;10.02;2.60;;;13.60;99.90;;;;;;5061594;28;20036;-67
2022/07/08 02:42:12;;;;;;;7.22;1.85;;;13.20;99.90;;;;;;5060272;28;20040;-66
2022/07/08 02:44:38;;;;;;;13.77;2.90;;;13.40;99.90;;;;;;5061511;28;20406;-67
2022/07/08 02:47:05;;;;;;;14.75;2.65;;;13.50;99.90;;;;;;5062769;28;20095;-67
2022/07/08 02:49:31;;;;;;;11.88;2.50;;;13.40;99.90;;;;;;5066859;28;20045;-67
2022/07/08 02:51:56;;;;;;;12.70;3.63;;;13.50;99.90;;;;;;5060117;28;20091;-67
2022/07/08 02:54:22;;;;;;;9.35;2.35;;;13.40;99.90;;;;;;5059883;28;20037;-68
2022/07/08 02:56:48;;;;;;;10.88;2.25;;;13.40;99.90;;;;;;5065029;28;20040;-69
2022/07/08 02:59:13;;;;;;;14.15;2.53;;;13.40;99.90;;;;;;5060073;28;20072;-66
2022/07/08 03:01:42;;;;;;;14.27;2.40;;;13.40;99.90;;;;;;5054323;28;20033;-67
2022/07/08 03:04:07;;;;;;;10.43;2.10;;;13.40;99.90;;;;;;5057497;28;20052;-68
2022/07/08 03:06:33;;;;;;;12.93;3.42;;;13.30;99.90;;;;;;5066081;28;20549;-67
2022/07/08 03:08:59;;;;;;;13.82;2.47;;;13.40;99.90;;;;;;5047854;28;20495;-67
2022/07/08 03:11:26;;;;;;;9.18;2.20;;;13.30;99.90;;;;;;5060759;28;20036;-67
2022/07/08 03:13:52;;;;;;;10.63;2.90;;;13.30;99.90;;;;;;5063111;28;20053;-68
2022/07/08 03:16:18;;;;;;;18.08;3.20;;;13.30;99.90;;;;;;5062620;28;20047;-67
2022/07/08 03:18:44;;;;;;;11.77;2.80;;;13.20;99.90;;;;;;5058489;28;20048;-68
2022/07/08 03:21:11;;;;;;;10.98;2.30;;;13.20;99.90;;;;;;5060521;28;20037;-66
2022/07/08 03:23:37;;;;;;;17.10;2.30;;;13.30;99.90;;;;;;5060255;28;20043;-67
2022/07/08 03:26:03;;;;;;;11.93;2.50;;;13.30;99.90;;;;;;5061143;28;20025;-67
2022/07/08 03:28:32;;;;;;;12.50;2.63;;;13.20;99.90;;;;;;5057277;28;20566;-68
2022/07/08 03:30:58;;;;;;;13.13;2.67;;;13.20;99.90;;;;;;5061991;28;20540;-68
2022/07/08 03:33:23;;;;;;;10.75;2.28;;;13.20;99.90;;;;;;5058469;28;20045;-67
2022/07/08 03:35:49;;;;;;;18.60;3.40;;;13.30;99.90;;;;;;5067669;28;20203;-67
2022/07/08 03:38:16;;;;;;;12.98;3.05;;;13.10;99.90;;;;;;5066628;28;20040;-67
2022/07/08 03:43:26;;;;;;;8.82;2.72;;;13.20;99.90;;;;;;5060759;28;20494;-67
2022/07/08 03:45:52;;;;;;;16.98;2.60;;;13.20;99.90;;;;;;5062934;28;20040;-69
2022/07/08 03:48:17;;;;;;;11.55;2.45;;;13.10;99.90;;;;;;5061149;28;20052;-68
2022/07/08 03:50:43;;;;;;;11.27;2.65;;;13.20;99.90;;;;;;5063096;28;20190;-68
2022/07/08 03:53:09;;;;;;;11.43;2.92;;;13.20;99.90;;;;;;5072088;28;20044;-67
2022/07/08 03:55:34;;;;;;;10.50;2.22;;;13.20;99.90;;;;;;5064832;28;20043;-67
2022/07/08 03:58:00;;;;;;;11.90;2.42;;;13.20;99.90;;;;;;5060118;28;20080;-67
2022/07/08 04:00:26;;;;;;;11.82;2.50;;;13.20;99.90;;;;;;5062577;28;20041;-68
2022/07/08 04:02:52;;;;;;;15.20;2.95;;;13.20;99.90;;;;;;5057956;28;20083;-67
2022/07/08 04:05:18;;;;;;;10.73;2.17;;;13.20;99.90;;;;;;5067422;28;20519;-67
2022/07/08 04:07:43;;;;;;;16.83;2.92;;;13.20;99.90;;;;;;5065014;28;20028;-67
2022/07/08 04:10:12;;;;;;;11.98;2.50;;;13.20;99.90;;;;;;5063437;28;20090;-66
2022/07/08 04:12:38;;;;;;;14.30;2.70;;;13.20;99.90;;;;;;5046825;28;20041;-66
2022/07/08 04:15:08;;;;;;;13.48;3.15;;;13.20;99.90;;;;;;5061479;28;20040;-67
2022/07/08 04:17:34;;;;;;;11.93;2.53;;;13.20;99.90;;;;;;5068927;28;20441;-65
2022/07/08 04:20:01;;;;;;;11.10;2.63;;;13.20;99.90;;;;;;5060249;28;20036;-68
2022/07/08 04:22:28;;;;;;;17.45;3.70;;;13.20;99.90;;;;;;5044152;28;20146;-68
2022/07/08 04:24:55;;;;;;;9.90;2.65;;;13.30;99.90;;;;;;5064388;28;20057;-67
2022/07/08 04:27:21;;;;;;;18.27;3.03;;;13.30;99.90;;;;;;5060239;28;20098;-66
2022/07/08 04:29:47;;;;;;;11.27;2.65;;;13.30;99.90;;;;;;5062082;28;20411;-68
2022/07/08 04:32:12;;;;;;;8.88;2.38;;;13.40;99.90;;;;;;5058425;28;20041;-67
2022/07/08 04:34:38;;;;;;;9.75;2.42;;;13.40;99.90;;;;;;5064920;28;20032;-67
2022/07/08 04:37:04;;;;;;;24.80;3.25;;;13.50;99.90;;;;;;5044312;28;20051;-67
2022/07/08 04:39:29;;;;;;;8.90;2.58;;;13.60;99.90;;;;;;5061381;28;20044;-67
2022/07/08 04:41:55;;;;;;;11.15;2.40;;;13.70;99.90;;;;;;5058913;28;20490;-66
2022/07/08 04:44:23;;;;;;;10.68;2.67;;;13.70;99.90;;;;;;5058511;28;20045;-66
2022/07/08 04:46:48;;;;;;;16.20;2.80;;;13.80;99.90;;;;;;5060701;28;20045;-68
2022/07/08 04:49:17;;;;;;;13.43;2.58;;;13.80;99.90;;;;;;5060218;28;20114;-69
2022/07/08 04:51:43;;;;;;;19.13;3.17;;;13.90;99.90;;;;;;5058048;28;20032;-68
2022/07/08 04:54:10;;;;;;;17.23;2.63;;;13.90;99.90;;;;;;5062211;28;20044;-66
2022/07/08 04:56:36;;;;;;;15.02;2.90;;;13.90;99.90;;;;;;5065882;28;20119;-68
2022/07/08 04:59:01;;;;;;;14.50;2.92;;;14.10;99.90;;;;;;5062234;28;20123;-67
2022/07/08 05:01:33;;;;;;;10.73;2.35;;;14.00;99.90;;;;;;5061450;28;20656;-67
2022/07/08 05:04:01;;;;;;;19.02;2.60;;;14.10;99.90;;;;;;5067641;28;20060;-67
2022/07/08 05:06:27;;;;;;;10.40;2.65;;;14.10;99.90;;;;;;5068024;28;20041;-69
2022/07/08 05:08:53;;;;;;;13.50;2.85;;;14.20;99.90;;;;;;5061869;28;20452;-66
2022/07/08 05:11:18;;;;;;;15.70;2.70;;;14.30;99.90;;;;;;5086803;28;20068;-66
2022/07/08 05:13:47;;;;;;;12.68;2.97;;;14.30;99.90;;;;;;5060752;28;20052;-67
2022/07/08 05:16:13;;;;;;;16.40;3.00;;;14.40;99.90;;;;;;5076025;28;20044;-66
2022/07/08 05:18:40;;;;;;;13.57;2.55;;;14.40;99.90;;;;;;5071677;28;20072;-67
2022/07/08 05:21:05;;;;;;;20.67;2.95;;;14.50;99.90;;;;;;5061492;28;20053;-67
2022/07/08 05:23:31;;;;;;;12.35;2.75;;;14.50;99.90;;;;;;5063973;28;20043;-68
2022/07/08 05:25:57;;;;;;;9.38;2.50;;;14.60;99.90;;;;;;5062958;28;20041;-67
2022/07/08 05:28:22;;;;;;;9.73;2.60;;;14.60;99.90;;;;;;5059871;28;20090;-66
2022/07/08 05:30:48;;;;;;;13.30;3.13;;;14.60;99.90;;;;;;5064972;28;20083;-67
2022/07/08 05:33:14;;;;;;;8.77;2.38;;;14.70;99.90;;;;;;5064522;28;20578;-67
2022/07/08 05:35:43;;;;;;;14.60;2.42;;;14.80;99.90;;;;;;5059583;28;20112;-67
2022/07/08 05:38:09;;;;;;;19.55;2.85;;;14.90;99.90;;;;;;5073225;28;20350;-67
2022/07/08 05:40:38;;;;;;;15.35;2.58;;;14.90;99.90;;;;;;5059384;28;20064;-67
2022/07/08 05:43:05;;;;;;;17.83;3.17;;;15.10;99.90;;;;;;5058668;28;20456;-68
2022/07/08 05:45:31;;;;;;;17.23;3.08;;;15.10;99.90;;;;;;5070872;28;20121;-68
2022/07/08 05:47:57;;;;;;;16.92;3.10;;;15.20;99.90;;;;;;5066134;28;20593;-66
2022/07/08 05:50:24;;;;;;;18.05;2.70;;;15.30;99.90;;;;;;5073368;28;20047;-67
2022/07/08 05:52:50;;;;;;;16.10;3.33;;;15.30;99.90;;;;;;5062201;28;20048;-67
2022/07/08 05:55:18;;;;;;;14.88;3.13;;;15.40;99.90;;;;;;5057786;28;20049;-67
2022/07/08 05:57:44;;;;;;;11.73;2.70;;;15.50;99.90;;;;;;5057388;28;20446;-68
2022/07/08 06:00:10;;;;;;;11.43;2.30;;;15.50;99.90;;;;;;5061595;28;20043;-68
2022/07/08 06:02:44;;;;;;;15.88;3.67;;;15.60;99.90;;;;;;5064673;28;20090;-68
2022/07/08 06:05:10;;;;;;;13.05;3.40;;;15.70;99.90;;;;;;5064657;28;20057;-70
2022/07/08 06:07:36;;;;;;;8.35;2.60;;;15.70;99.90;;;;;;5062261;28;20043;-66
2022/07/08 06:10:02;;;;;;;25.98;3.05;;;15.80;99.90;;;;;;5072093;28;20207;-67
2022/07/08 06:12:28;;;;;;;15.13;2.60;;;15.90;99.90;;;;;;5069174;28;20513;-67
2022/07/08 06:14:54;;;;;;;16.13;3.35;;;15.90;99.90;;;;;;5067956;28;20047;-67
2022/07/08 06:17:19;;;;;;;12.82;2.58;;;16.00;99.90;;;;;;5065413;28;20080;-67
2022/07/08 06:19:45;;;;;;;12.88;2.95;;;16.10;99.90;;;;;;5068155;28;20033;-68
2022/07/08 06:22:11;;;;;;;16.23;2.83;;;16.20;99.90;;;;;;5065904;28;20041;-68
2022/07/08 06:24:36;;;;;;;10.32;2.75;;;16.10;99.90;;;;;;5061195;28;20551;-68
2022/07/08 06:27:02;;;;;;;9.20;2.72;;;16.20;99.90;;;;;;5042661;28;20040;-66
2022/07/08 06:29:28;;;;;;;20.10;3.08;;;16.30;99.90;;;;;;5060816;28;20037;-68
2022/07/08 06:31:53;;;;;;;14.48;3.08;;;16.30;99.90;;;;;;5068640;28;20044;-67
2022/07/08 06:34:19;;;;;;;14.93;2.85;;;16.50;99.90;;;;;;5065385;28;20119;-66
2022/07/08 06:36:45;;;;;;;20.60;3.00;;;16.50;99.90;;;;;;5068113;28;20067;-68
2022/07/08 06:39:10;;;;;;;13.10;2.85;;;16.50;99.90;;;;;;5079813;28;20073;-68
2022/07/08 06:41:36;;;;;;;14.98;2.50;;;16.60;99.90;;;;;;5064579;28;21357;-68
2022/07/08 06:44:02;;;;;;;11.35;2.20;;;16.70;99.90;;;;;;5060805;28;20119;-67
2022/07/08 06:46:28;;;;;;;17.52;2.80;;;16.80;99.90;;;;;;5067066;28;20052;-66
2022/07/08 06:48:54;;;;;;;11.00;2.83;;;16.90;99.90;;;;;;5062951;28;20128;-67
2022/07/08 06:51:20;;;;;;;14.63;2.80;;;16.90;99.90;;;;;;5061970;28;20131;-68
2022/07/08 06:56:30;;;;;;;12.60;2.80;;;17.00;99.90;;;;;;5068721;28;20048;-67
2022/07/08 06:58:56;;;;;;;12.88;2.80;;;17.20;99.90;;;;;;5061787;28;20036;-69
2022/07/08 07:01:21;;;;;;;11.77;2.45;;;17.20;99.90;;;;;;5067921;28;20398;-67
2022/07/08 07:03:47;;;;;;;13.30;2.90;;;17.30;99.90;;;;;;5068028;28;20059;-68
2022/07/08 07:06:13;;;;;;;16.55;2.97;;;17.30;99.90;;;;;;5066031;28;20139;-69
2022/07/08 07:08:38;;;;;;;16.73;2.55;;;17.30;99.90;;;;;;5066753;28;20055;-68
2022/07/08 07:11:04;;;;;;;10.13;2.50;;;17.50;99.90;;;;;;5066824;28;20040;-66
2022/07/08 07:13:30;;;;;;;11.68;2.67;;;17.60;99.90;;;;;;5063462;28;20360;-67
2022/07/08 07:15:56;;;;;;;10.25;2.55;;;17.70;99.90;;;;;;5064248;28;20036;-67
2022/07/08 07:18:21;;;;;;;12.73;2.30;;;17.70;99.90;;;;;;5070406;28;20044;-66
2022/07/08 07:20:47;;;;;;;11.38;2.50;;;17.70;99.90;;;;;;5065975;28;20037;-67
2022/07/08 07:23:13;;;;;;;9.48;2.30;;;17.80;99.90;;;;;;5062617;28;20178;-67
2022/07/08 07:25:39;;;;;;;12.95;2.55;;;17.80;99.90;;;;;;5059974;28;20101;-67
2022/07/08 07:28:04;;;;;;;14.93;3.00;;;17.80;99.90;;;;;;5065924;28;20033;-68
2022/07/08 07:30:30;;;;;;;7.68;2.50;;;17.80;99.90;;;;;;5063597;28;20055;-67
2022/07/08 07:32:56;;;;;;;8.07;2.20;;;17.90;99.90;;;;;;5063219;28;20081;-67
2022/07/08 07:35:22;;;;;;;11.35;2.22;;;17.90;99.90;;;;;;5062985;28;20130;-68
2022/07/08 07:37:47;;;;;;;15.57;2.58;;;17.90;99.90;;;;;;5066766;28;20654;-68
2022/07/08 07:40:13;;;;;;;8.85;1.95;;;18.00;99.90;;;;;;5067115;28;20451;-68
2022/07/08 07:42:40;;;;;;;11.90;2.28;;;18.00;99.90;;;;;;5061479;28;20035;-67
2022/07/08 07:45:06;;;;;;;9.73;2.75;;;18.10;99.90;;;;;;5056832;28;20050;-68
2022/07/08 07:47:32;;;;;;;11.98;2.15;;;18.10;99.90;;;;;;5058369;28;20394;-66
2022/07/08 07:49:58;;;;;;;12.85;2.58;;;18.00;99.90;;;;;;5060164;28;20136;-68
2022/07/08 07:52:27;;;;;;;11.95;2.50;;;18.00;99.90;;;;;;5062254;28;20379;-67
2022/07/08 07:54:52;;;;;;;12.63;3.33;;;18.00;99.90;;;;;;5061200;28;20043;-68
2022/07/08 07:57:18;;;;;;;16.75;2.85;;;18.00;99.90;;;;;;5064740;28;20036;-67
2022/07/08 07:59:45;;;;;;;7.20;2.10;;;18.00;99.90;;;;;;5062739;28;20098;-69
2022/07/08 08:02:11;;;;;;;7.45;2.22;;;18.00;99.90;;;;;;5058088;28;20049;-70
2022/07/08 08:04:41;;;;;;;12.35;2.78;;;18.20;99.90;;;;;;5065089;28;20053;-67
2022/07/08 08:07:07;;;;;;;8.88;2.40;;;18.10;99.90;;;;;;5050872;28;20056;-69
2022/07/08 08:09:32;;;;;;;12.40;2.03;;;18.20;99.90;;;;;;5065363;28;20411;-68
2022/07/08 08:11:58;;;;;;;13.00;2.60;;;18.10;99.90;;;;;;5066972;28;20037;-67
2022/07/08 08:14:26;;;;;;;11.55;2.28;;;18.20;99.90;;;;;;5067641;28;20483;-68
2022/07/08 08:16:52;;;;;;;9.48;2.42;;;18.20;99.90;;;;;;5060719;28;20044;-67
2022/07/08 08:19:20;;;;;;;8.68;2.17;;;18.20;99.90;;;;;;5064978;28;20036;-66
2022/07/08 08:21:46;;;;;;;8.52;2.45;;;18.10;99.90;;;;;;5057678;28;20028;-68
2022/07/08 08:24:14;;;;;;;16.48;3.47;;;18.10;99.90;;;;;;5065573;28;20036;-67
2022/07/08 08:26:43;;;;;;;11.90;2.80;;;18.10;99.90;;;;;;5064047;28;20073;-68
2022/07/08 08:29:11;;;;;;;9.13;2.50;;;18.30;99.90;;;;;;5061842;28;20441;-67
2022/07/08 08:31:40;;;;;;;10.45;2.25;;;18.20;99.90;;;;;;5059372;28;20036;-68
2022/07/08 08:34:06;;;;;;;14.23;2.75;;;18.20;99.90;;;;;;5065793;28;20456;-68
2022/07/08 08:36:31;;;;;;;13.55;2.65;;;18.20;99.90;;;;;;5063707;28;20083;-67
2022/07/08 08:38:57;;;;;;;10.27;2.55;;;18.30;99.90;;;;;;5061142;28;20070;-68
2022/07/08 08:41:23;;;;;;;17.98;2.60;;;18.20;99.90;;;;;;5067337;28;20433;-68
2022/07/08 08:43:49;;;;;;;6.95;2.28;;;18.20;99.90;;;;;;5061654;28;20083;-67
2022/07/08 08:46:17;;;;;;;9.82;2.42;;;18.30;99.90;;;;;;5062775;28;20466;-67
2022/07/08 08:48:46;;;;;;;8.63;2.50;;;18.30;99.90;;;;;;5067930;28;20413;-68
2022/07/08 08:51:20;;;;;;;6.90;2.25;;;18.40;99.90;;;;;;5063255;28;20132;-67
2022/07/08 08:53:47;;;;;;;6.53;2.20;;;18.40;99.90;;;;;;5068331;28;20486;-67
2022/07/08 08:56:16;;;;;;;7.85;2.20;;;18.50;99.90;;;;;;5044986;28;20033;-67
2022/07/08 08:58:47;;;;;;;9.88;2.33;;;18.60;99.90;;;;;;5052426;28;20040;-67
2022/07/08 09:01:18;;;;;;;12.63;2.55;;;18.50;99.90;;;;;;5067846;28;20048;-67
2022/07/08 09:03:44;;;;;;;10.73;2.33;;;18.60;99.90;;;;;;5061569;28;20045;-69
2022/07/08 09:06:10;;;;;;;10.02;2.28;;;18.80;99.90;;;;;;5069184;28;20052;-68
2022/07/08 09:08:36;;;;;;;9.00;2.97;;;18.80;99.90;;;;;;5060427;28;20044;-67
2022/07/08 09:11:03;;;;;;;12.10;2.63;;;18.90;99.90;;;;;;5046150;28;20045;-71
2022/07/08 09:13:29;;;;;;;10.73;2.97;;;19.00;99.90;;;;;;5063718;28;20037;-68
2022/07/08 09:16:00;;;;;;;11.40;2.60;;;19.10;99.90;;;;;;5065553;28;20437;-67
2022/07/08 09:18:40;;;;;;;8.52;2.00;;;19.20;99.90;;;;;;5049260;28;20028;-67
2022/07/08 09:21:07;;;;;;;10.85;2.08;;;19.20;99.90;;;;;;5066438;28;20066;-68
2022/07/08 09:23:37;;;;;;;18.10;2.45;;;19.30;99.90;;;;;;5064335;28;20394;-70
2022/07/08 09:26:05;;;;;;;9.27;2.55;;;19.30;99.90;;;;;;5062496;28;20041;-68
2022/07/08 09:28:45;;;;;;;14.43;2.67;;;19.30;99.90;;;;;;5063641;28;20086;-67
2022/07/08 09:31:15;;;;;;;8.18;2.15;;;19.40;99.90;;;;;;5058538;28;20453;-68
2022/07/08 09:33:44;;;;;;;7.88;2.17;;;19.50;99.90;;;;;;5065289;28;20047;-66
2022/07/08 09:36:10;;;;;;;6.85;2.10;;;19.50;99.90;;;;;;5065920;28;20099;-67
2022/07/08 09:38:37;;;;;;;9.52;2.28;;;19.50;99.90;;;;;;5068571;28;20037;-68
2022/07/08 09:41:13;;;;;;;8.35;2.20;;;19.60;99.90;;;;;;5064812;28;20056;-68
2022/07/08 09:43:46;;;;;;;8.57;2.30;;;19.60;99.90;;;;;;5049148;28;20048;-67
2022/07/08 09:46:12;;;;;;;8.25;2.35;;;19.60;99.90;;;;;;5062190;28;20506;-66
2022/07/08 09:48:38;;;;;;;9.95;2.10;;;19.60;99.90;;;;;;5069781;28;20036;-67
2022/07/08 09:51:07;;;;;;;7.45;1.75;;;19.60;99.90;;;;;;5066821;28;20397;-67
2022/07/08 09:53:34;;;;;;;7.10;2.15;;;19.80;99.90;;;;;;5066523;28;20068;-66
2022/07/08 09:56:00;;;;;;;5.55;2.15;;;19.90;99.90;;;;;;5073491;28;20045;-67
2022/07/08 09:58:30;;;;;;;8.77;2.40;;;20.10;99.90;;;;;;5069974;28;20126;-68
2022/07/08 10:00:56;;;;;;;10.70;2.50;;;20.10;99.90;;;;;;5065849;28;20788;-68
2022/07/08 10:03:24;;;;;;;6.78;1.85;;;20.20;99.90;;;;;;5070617;28;20037;-67
2022/07/08 10:05:50;;;;;;;8.05;2.13;;;20.30;99.90;;;;;;5060405;28;20051;-66
2022/07/08 10:08:19;;;;;;;9.18;2.33;;;20.30;99.90;;;;;;5051346;28;20044;-68
2022/07/08 10:10:46;;;;;;;10.02;2.50;;;20.30;99.90;;;;;;5072198;28;20032;-68
2022/07/08 10:13:14;;;;;;;9.35;2.38;;;20.30;99.90;;;;;;5063485;28;20037;-68
2022/07/08 10:15:43;;;;;;;5.72;2.20;;;20.40;99.90;;;;;;5066249;28;20079;-67
2022/07/08 10:18:15;;;;;;;10.95;2.50;;;20.40;99.90;;;;;;5042912;28;20041;-67
2022/07/08 10:20:46;;;;;;;13.10;3.15;;;20.40;99.90;;;;;;5072467;28;20055;-69
2022/07/08 10:23:27;;;;;;;9.48;2.70;;;20.50;99.90;;;;;;5070999;28;20102;-68
2022/07/08 10:25:56;;;;;;;8.52;2.13;;;20.60;99.90;;;;;;5083792;28;20483;-69
2022/07/08 10:28:56;;;;;;;9.20;2.25;;;20.60;99.90;;;;;;5066443;28;20040;-72
2022/07/08 10:31:27;;;;;;;7.60;2.20;;;20.60;99.90;;;;;;5062147;28;20116;-68
2022/07/08 10:34:02;;;;;;;12.98;2.30;;;20.70;99.90;;;;;;5061999;28;20580;-67
2022/07/08 10:36:28;;;;;;;9.73;2.95;;;20.80;99.90;;;;;;5067752;28;20045;-68
2022/07/08 10:39:03;;;;;;;8.57;2.30;;;20.90;99.90;;;;;;5063582;28;20139;-67
2022/07/08 10:41:29;;;;;;;13.23;3.00;;;21.00;99.90;;;;;;5064540;28;20052;-67
2022/07/08 10:44:00;;;;;;;7.78;2.63;;;21.20;99.90;;;;;;5049497;28;20044;-67
2022/07/08 10:46:27;;;;;;;10.40;2.40;;;21.40;99.90;;;;;;5056687;28;20037;-68
2022/07/08 10:49:00;;;;;;;8.07;2.22;;;21.60;99.90;;;;;;5060302;28;20040;-66
2022/07/08 10:51:32;;;;;;;6.20;2.22;;;21.70;99.90;;;;;;5055627;28;20045;-68
2022/07/08 10:54:01;;;;;;;8.93;2.42;;;21.60;99.90;;;;;;5058447;28;20099;-67
2022/07/08 10:57:00;;;;;;;13.05;2.25;;;21.60;99.90;;;;;;5060633;28;20383;-69
2022/07/08 10:59:27;;;;;;;6.72;2.00;;;21.50;99.90;;;;;;5058642;28;20036;-67
2022/07/08 11:02:05;;;;;;;8.80;2.33;;;21.50;99.90;;;;;;5049983;28;20044;-68
2022/07/08 11:04:33;;;;;;;8.73;2.10;;;21.50;99.90;;;;;;5059956;28;20381;-66
2022/07/08 11:07:20;;;;;;;13.13;2.60;;;21.40;99.90;;;;;;5052216;28;20812;-67
2022/07/08 11:09:51;;;;;;;7.72;2.60;;;21.60;99.90;;;;;;5063272;28;20063;-66
2022/07/08 11:12:22;;;;;;;5.40;2.20;;;21.70;99.90;;;;;;5063421;28;20045;-67
2022/07/08 11:15:03;;;;;;;12.10;2.53;;;21.90;99.90;;;;;;5062049;28;20052;-67
2022/07/08 11:17:32;;;;;;;6.50;2.20;;;22.20;99.90;;;;;;5056142;28;20041;-66
2022/07/08 11:20:00;;;;;;;13.50;2.40;;;22.30;99.90;;;;;;5053406;28;20400;-68
2022/07/08 11:22:27;;;;;;;9.52;2.55;;;22.50;99.90;;;;;;5071019;28;20033;-68
2022/07/08 11:24:57;;;;;;;8.90;2.75;;;22.70;99.90;;;;;;5068312;28;20495;-68
2022/07/08 11:27:33;;;;;;;7.32;2.38;;;23.10;99.90;;;;;;5069936;28;20044;-67
2022/07/08 11:30:02;;;;;;;11.07;2.55;;;23.40;99.90;;;;;;5063586;28;20119;-67
2022/07/08 11:32:30;;;;;;;9.45;2.60;;;23.70;99.90;;;;;;5063976;28;20124;-67
2022/07/08 11:34:56;;;;;;;9.15;2.55;;;24.00;99.90;;;;;;5060820;28;20123;-67
2022/07/08 11:37:23;;;;;;;9.27;2.42;;;24.10;99.90;;;;;;5058262;28;20110;-69
2022/07/08 11:39:49;;;;;;;5.18;2.30;;;24.20;99.90;;;;;;5067552;28;20044;-66
2022/07/08 11:42:16;;;;;;;10.82;2.80;;;24.30;99.90;;;;;;5063212;28;20040;-67
2022/07/08 11:44:45;;;;;;;13.32;2.33;;;24.40;99.90;;;;;;5063390;28;20036;-66
2022/07/08 11:47:19;;;;;;;9.40;2.53;;;24.40;99.90;;;;;;5063822;28;20033;-68
2022/07/08 11:49:47;;;;;;;11.85;2.17;;;24.20;99.90;;;;;;5059799;28;20048;-66
2022/07/08 11:52:18;;;;;;;8.90;2.42;;;24.10;99.90;;;;;;5064273;28;20045;-66
2022/07/08 11:54:46;;;;;;;7.15;2.10;;;23.90;99.90;;;;;;5050015;28;20041;-66
2022/07/08 11:57:13;;;;;;;9.63;2.58;;;23.80;99.90;;;;;;5058476;28;20052;-67
2022/07/08 11:59:39;;;;;;;13.97;2.70;;;23.60;99.90;;;;;;5069014;28;20047;-67
2022/07/08 12:02:08;;;;;;;9.40;2.30;;;23.40;99.90;;;;;;5068910;28;20040;-67
2022/07/08 12:04:34;;;;;;;8.80;2.30;;;23.40;99.90;;;;;;5062556;28;20044;-66
2022/07/08 12:07:25;;;;;;;12.48;2.72;;;23.30;99.90;;;;;;5053997;28;20174;-67
2022/07/08 12:09:59;;;;;;;7.75;2.63;;;23.20;99.90;;;;;;5053095;28;20049;-65
2022/07/08 12:12:30;;;;;;;9.85;2.97;;;23.10;99.90;;;;;;5055267;28;20419;-67
2022/07/08 12:15:08;;;;;;;10.75;2.30;;;23.00;99.90;;;;;;5065382;28;20167;-66
2022/07/08 12:17:37;;;;;;;9.18;2.67;;;22.90;99.90;;;;;;5065176;28;20403;-67
2022/07/08 12:20:03;;;;;;;9.77;2.75;;;23.00;99.90;;;;;;5052717;28;20036;-66
2022/07/08 12:22:46;;;;;;;9.32;3.22;;;22.80;99.90;;;;;;5060741;28;20033;-67
2022/07/08 12:25:18;;;;;;;12.80;2.72;;;22.80;99.90;;;;;;5069621;28;20040;-67
2022/07/08 12:27:58;;;;;;;10.45;2.67;;;22.80;99.90;;;;;;5053428;28;20049;-66
2022/07/08 12:30:29;;;;;;;10.63;3.00;;;23.10;99.90;;;;;;5052786;28;20089;-67
2022/07/08 12:33:04;;;;;;;10.77;2.88;;;23.40;99.90;;;;;;5055734;28;20144;-66
2022/07/08 12:35:33;;;;;;;10.77;3.03;;;23.40;99.90;;;;;;5062719;28;20045;-67
2022/07/08 12:38:06;;;;;;;11.10;3.05;;;23.50;99.90;;;;;;5062276;28;20148;-67
2022/07/08 12:40:43;;;;;;;9.50;2.50;;;23.60;99.90;;;;;;5058699;28;20470;-66
2022/07/08 12:43:11;;;;;;;9.23;2.42;;;23.70;99.90;;;;;;5040834;28;20123;-67
2022/07/08 12:45:37;;;;;;;;;;;23.80;99.90;;;;;;5066304;28;20394;-67
2022/07/08 12:48:03;;;;;;;7.25;2.17;;;24.00;99.90;;;;;;5056317;28;19937;-66